sensor_id;sensor_type;location;lat;lon;timestamp;pressure;altitude;pressure_sealevel;temperature;humidity
68141;BME280;54941;52.220;104.306;2022-12-07T00:00:32;97156.66;;;-6.97;63.69
68141;BME280;54941;52.220;104.306;2022-12-07T00:02:59;97152.75;;;-6.70;63.59
68141;BME280;54941;52.220;104.306;2022-12-07T00:05:26;97157.59;;;-6.67;62.74
68141;BME280;54941;52.220;104.306;2022-12-07T00:07:53;97163.00;;;-6.74;63.01
68141;BME280;54941;52.220;104.306;2022-12-07T00:10:19;97167.22;;;-6.75;63.32
68141;BME280;54941;52.220;104.306;2022-12-07T00:12:45;97175.13;;;-6.82;63.09
68141;BME280;54941;52.220;104.306;2022-12-07T00:15:12;97168.63;;;-6.86;62.95
68141;BME280;54941;52.220;104.306;2022-12-07T00:17:38;97179.31;;;-6.83;63.68
68141;BME280;54941;52.220;104.306;2022-12-07T00:20:06;97177.94;;;-6.88;63.45
68141;BME280;54941;52.220;104.306;2022-12-07T00:22:34;97171.78;;;-6.83;62.65
68141;BME280;54941;52.220;104.306;2022-12-07T00:25:00;97179.22;;;-6.97;63.15
68141;BME280;54941;52.220;104.306;2022-12-07T00:27:27;97192.38;;;-6.94;63.10
68141;BME280;54941;52.220;104.306;2022-12-07T00:29:53;97181.66;;;-6.96;63.93
68141;BME280;54941;52.220;104.306;2022-12-07T00:32:20;97192.63;;;-6.98;64.03
68141;BME280;54941;52.220;104.306;2022-12-07T00:34:46;97184.44;;;-7.02;63.93
68141;BME280;54941;52.220;104.306;2022-12-07T00:37:12;97186.50;;;-6.93;63.09
68141;BME280;54941;52.220;104.306;2022-12-07T00:39:40;97193.84;;;-6.90;63.08
68141;BME280;54941;52.220;104.306;2022-12-07T00:42:07;97194.81;;;-6.92;62.38
68141;BME280;54941;52.220;104.306;2022-12-07T00:44:33;97208.50;;;-7.15;62.70
68141;BME280;54941;52.220;104.306;2022-12-07T00:47:00;97205.59;;;-7.40;63.18
68141;BME280;54941;52.220;104.306;2022-12-07T00:49:26;97204.25;;;-7.30;63.37
68141;BME280;54941;52.220;104.306;2022-12-07T00:51:52;97209.91;;;-7.26;62.95
68141;BME280;54941;52.220;104.306;2022-12-07T00:54:19;97211.91;;;-7.33;61.86
68141;BME280;54941;52.220;104.306;2022-12-07T00:56:46;97216.81;;;-7.31;62.62
68141;BME280;54941;52.220;104.306;2022-12-07T00:59:13;97216.53;;;-7.25;61.73
68141;BME280;54941;52.220;104.306;2022-12-07T01:01:40;97219.59;;;-7.20;61.41
68141;BME280;54941;52.220;104.306;2022-12-07T01:04:06;97220.00;;;-7.28;61.60
68141;BME280;54941;52.220;104.306;2022-12-07T01:06:33;97229.63;;;-7.20;62.67
68141;BME280;54941;52.220;104.306;2022-12-07T01:09:00;97229.50;;;-7.17;61.45
68141;BME280;54941;52.220;104.306;2022-12-07T01:11:28;97227.66;;;-7.14;62.49
68141;BME280;54941;52.220;104.306;2022-12-07T01:13:57;97223.69;;;-7.18;61.19
68141;BME280;54941;52.220;104.306;2022-12-07T01:16:25;97226.94;;;-7.33;61.73
68141;BME280;54941;52.220;104.306;2022-12-07T01:18:53;97233.22;;;-7.09;61.19
68141;BME280;54941;52.220;104.306;2022-12-07T01:21:21;97234.19;;;-7.11;61.45
68141;BME280;54941;52.220;104.306;2022-12-07T01:23:48;97236.81;;;-6.97;61.83
68141;BME280;54941;52.220;104.306;2022-12-07T01:26:16;97231.66;;;-6.94;61.14
68141;BME280;54941;52.220;104.306;2022-12-07T01:28:44;97240.84;;;-6.95;60.29
68141;BME280;54941;52.220;104.306;2022-12-07T01:31:13;97242.53;;;-7.11;60.44
68141;BME280;54941;52.220;104.306;2022-12-07T01:33:39;97249.88;;;-7.08;60.32
68141;BME280;54941;52.220;104.306;2022-12-07T01:36:08;97247.69;;;-7.14;59.78
68141;BME280;54941;52.220;104.306;2022-12-07T01:38:38;97251.13;;;-6.99;60.26
68141;BME280;54941;52.220;104.306;2022-12-07T01:41:04;97241.00;;;-6.98;59.83
68141;BME280;54941;52.220;104.306;2022-12-07T01:43:32;97251.09;;;-6.82;59.80
68141;BME280;54941;52.220;104.306;2022-12-07T01:45:59;97245.38;;;-6.84;59.33
68141;BME280;54941;52.220;104.306;2022-12-07T01:48:30;97249.41;;;-6.81;58.93
68141;BME280;54941;52.220;104.306;2022-12-07T01:51:01;97247.81;;;-6.67;58.31
68141;BME280;54941;52.220;104.306;2022-12-07T01:53:30;97247.88;;;-6.68;58.96
68141;BME280;54941;52.220;104.306;2022-12-07T01:55:59;97255.59;;;-6.56;58.14
68141;BME280;54941;52.220;104.306;2022-12-07T01:58:25;97257.97;;;-6.37;57.52
68141;BME280;54941;52.220;104.306;2022-12-07T02:00:52;97259.19;;;-6.28;56.18
68141;BME280;54941;52.220;104.306;2022-12-07T02:03:21;97257.09;;;-6.36;56.32
68141;BME280;54941;52.220;104.306;2022-12-07T02:05:51;97258.13;;;-6.24;55.54
68141;BME280;54941;52.220;104.306;2022-12-07T02:08:19;97266.06;;;-6.16;55.65
68141;BME280;54941;52.220;104.306;2022-12-07T02:10:46;97262.75;;;-6.01;55.23
68141;BME280;54941;52.220;104.306;2022-12-07T02:13:14;97254.09;;;-5.96;54.94
68141;BME280;54941;52.220;104.306;2022-12-07T02:15:53;97266.06;;;-6.01;55.54
68141;BME280;54941;52.220;104.306;2022-12-07T02:18:33;97253.06;;;-5.92;55.39
68141;BME280;54941;52.220;104.306;2022-12-07T02:21:07;97256.81;;;-5.84;54.95
68141;BME280;54941;52.220;104.306;2022-12-07T02:23:46;97265.25;;;-6.17;56.80
68141;BME280;54941;52.220;104.306;2022-12-07T02:26:44;97259.84;;;-5.94;56.41
68141;BME280;54941;52.220;104.306;2022-12-07T02:29:22;97263.25;;;-6.10;57.53
68141;BME280;54941;52.220;104.306;2022-12-07T02:31:59;97266.97;;;-5.86;57.31
68141;BME280;54941;52.220;104.306;2022-12-07T02:34:31;97273.41;;;-6.13;58.01
68141;BME280;54941;52.220;104.306;2022-12-07T02:37:03;97275.69;;;-5.93;58.04
68141;BME280;54941;52.220;104.306;2022-12-07T02:39:37;97269.66;;;-5.75;58.25
68141;BME280;54941;52.220;104.306;2022-12-07T02:42:14;97261.97;;;-5.72;57.85
68141;BME280;54941;52.220;104.306;2022-12-07T02:44:44;97270.47;;;-5.59;57.71
68141;BME280;54941;52.220;104.306;2022-12-07T02:47:12;97268.41;;;-5.52;57.56
68141;BME280;54941;52.220;104.306;2022-12-07T02:49:41;97271.41;;;-5.91;58.70
68141;BME280;54941;52.220;104.306;2022-12-07T02:52:08;97275.25;;;-5.70;57.48
68141;BME280;54941;52.220;104.306;2022-12-07T02:54:36;97272.25;;;-5.01;57.61
68141;BME280;54941;52.220;104.306;2022-12-07T02:57:11;97276.41;;;-4.86;56.55
68141;BME280;54941;52.220;104.306;2022-12-07T02:59:50;97277.50;;;-4.48;55.77
68141;BME280;54941;52.220;104.306;2022-12-07T03:02:28;97282.50;;;-4.19;54.81
68141;BME280;54941;52.220;104.306;2022-12-07T03:05:05;97288.25;;;-4.17;54.37
68141;BME280;54941;52.220;104.306;2022-12-07T03:07:42;97285.06;;;-3.52;53.52
68141;BME280;54941;52.220;104.306;2022-12-07T03:10:18;97284.31;;;-3.27;53.17
68141;BME280;54941;52.220;104.306;2022-12-07T03:12:48;97276.81;;;-3.95;53.65
68141;BME280;54941;52.220;104.306;2022-12-07T03:15:26;97280.72;;;-3.10;53.11
68141;BME280;54941;52.220;104.306;2022-12-07T03:17:53;97289.63;;;-2.92;51.88
68141;BME280;54941;52.220;104.306;2022-12-07T03:20:23;97291.53;;;-2.96;51.85
68141;BME280;54941;52.220;104.306;2022-12-07T03:22:51;97290.25;;;-2.63;51.45
68141;BME280;54941;52.220;104.306;2022-12-07T03:25:19;97292.69;;;-3.53;53.55
68141;BME280;54941;52.220;104.306;2022-12-07T03:27:49;97288.91;;;-2.31;50.85
68141;BME280;54941;52.220;104.306;2022-12-07T03:30:21;97290.81;;;-2.09;49.18
68141;BME280;54941;52.220;104.306;2022-12-07T03:32:52;97288.81;;;-2.42;50.04
68141;BME280;54941;52.220;104.306;2022-12-07T03:35:23;97290.13;;;-1.87;48.66
68141;BME280;54941;52.220;104.306;2022-12-07T03:37:54;97291.22;;;-3.04;49.62
68141;BME280;54941;52.220;104.306;2022-12-07T03:40:25;97291.91;;;-2.13;49.27
68141;BME280;54941;52.220;104.306;2022-12-07T03:42:54;97290.13;;;-1.87;48.05
68141;BME280;54941;52.220;104.306;2022-12-07T03:45:27;97286.13;;;-2.03;49.37
68141;BME280;54941;52.220;104.306;2022-12-07T03:48:03;97290.91;;;-2.99;49.09
68141;BME280;54941;52.220;104.306;2022-12-07T03:50:38;97283.66;;;-1.79;47.93
68141;BME280;54941;52.220;104.306;2022-12-07T03:53:12;97289.44;;;-2.89;50.07
68141;BME280;54941;52.220;104.306;2022-12-07T03:55:43;97280.53;;;-2.95;50.41
68141;BME280;54941;52.220;104.306;2022-12-07T03:58:12;97279.81;;;-3.75;50.91
68141;BME280;54941;52.220;104.306;2022-12-07T04:00:42;97284.72;;;-4.01;52.00
68141;BME280;54941;52.220;104.306;2022-12-07T04:03:09;97280.41;;;-3.99;52.87
68141;BME280;54941;52.220;104.306;2022-12-07T04:05:36;97284.94;;;-4.04;53.09
68141;BME280;54941;52.220;104.306;2022-12-07T04:08:02;97277.03;;;-4.54;53.49
68141;BME280;54941;52.220;104.306;2022-12-07T04:10:29;97279.94;;;-3.91;52.49
68141;BME280;54941;52.220;104.306;2022-12-07T04:12:55;97277.75;;;-4.24;53.16
68141;BME280;54941;52.220;104.306;2022-12-07T04:15:22;97275.50;;;-4.43;52.98
68141;BME280;54941;52.220;104.306;2022-12-07T04:17:50;97270.66;;;-4.31;53.71
68141;BME280;54941;52.220;104.306;2022-12-07T04:20:16;97279.75;;;-4.29;52.46
68141;BME280;54941;52.220;104.306;2022-12-07T04:22:43;97269.78;;;-4.59;54.01
68141;BME280;54941;52.220;104.306;2022-12-07T04:25:09;97267.34;;;-4.18;52.83
68141;BME280;54941;52.220;104.306;2022-12-07T04:27:35;97276.78;;;-4.50;53.25
68141;BME280;54941;52.220;104.306;2022-12-07T04:30:02;97267.16;;;-4.29;54.29
68141;BME280;54941;52.220;104.306;2022-12-07T04:32:30;97276.94;;;-4.38;53.77
68141;BME280;54941;52.220;104.306;2022-12-07T04:34:58;97272.06;;;-3.99;52.75
68141;BME280;54941;52.220;104.306;2022-12-07T04:37:25;97271.50;;;-3.63;50.50
68141;BME280;54941;52.220;104.306;2022-12-07T04:39:51;97260.22;;;-4.39;52.60
68141;BME280;54941;52.220;104.306;2022-12-07T04:42:18;97262.97;;;-4.02;51.58
68141;BME280;54941;52.220;104.306;2022-12-07T04:44:47;97262.13;;;-4.57;52.67
68141;BME280;54941;52.220;104.306;2022-12-07T04:47:13;97255.38;;;-4.43;52.21
68141;BME280;54941;52.220;104.306;2022-12-07T04:49:39;97260.50;;;-4.16;51.86
68141;BME280;54941;52.220;104.306;2022-12-07T04:52:07;97249.75;;;-4.88;52.25
68141;BME280;54941;52.220;104.306;2022-12-07T04:54:34;97264.09;;;-4.91;52.79
68141;BME280;54941;52.220;104.306;2022-12-07T04:57:00;97261.97;;;-4.40;53.05
68141;BME280;54941;52.220;104.306;2022-12-07T04:59:27;97268.59;;;-4.67;52.95
68141;BME280;54941;52.220;104.306;2022-12-07T05:01:53;97255.59;;;-4.60;52.05
68141;BME280;54941;52.220;104.306;2022-12-07T05:04:19;97254.69;;;-4.45;52.61
68141;BME280;54941;52.220;104.306;2022-12-07T05:06:49;97256.22;;;-4.70;51.22
68141;BME280;54941;52.220;104.306;2022-12-07T05:09:17;97248.56;;;-4.69;51.57
68141;BME280;54941;52.220;104.306;2022-12-07T05:11:43;97259.88;;;-4.76;51.63
68141;BME280;54941;52.220;104.306;2022-12-07T05:14:12;97259.84;;;-4.05;49.65
68141;BME280;54941;52.220;104.306;2022-12-07T05:16:39;97258.34;;;-4.36;49.67
68141;BME280;54941;52.220;104.306;2022-12-07T05:19:06;97259.94;;;-4.21;49.29
68141;BME280;54941;52.220;104.306;2022-12-07T05:21:33;97261.16;;;-4.40;50.27
68141;BME280;54941;52.220;104.306;2022-12-07T05:23:59;97266.44;;;-4.31;49.55
68141;BME280;54941;52.220;104.306;2022-12-07T05:26:28;97258.88;;;-4.17;48.64
68141;BME280;54941;52.220;104.306;2022-12-07T05:28:55;97261.97;;;-3.85;48.00
68141;BME280;54941;52.220;104.306;2022-12-07T05:31:23;97261.38;;;-3.49;47.34
68141;BME280;54941;52.220;104.306;2022-12-07T05:33:49;97260.72;;;-3.65;47.66
68141;BME280;54941;52.220;104.306;2022-12-07T05:36:16;97262.63;;;-3.96;47.37
68141;BME280;54941;52.220;104.306;2022-12-07T05:38:42;97257.44;;;-3.53;46.61
68141;BME280;54941;52.220;104.306;2022-12-07T05:41:12;97250.06;;;-3.83;47.02
68141;BME280;54941;52.220;104.306;2022-12-07T05:43:40;97252.16;;;-3.89;47.74
68141;BME280;54941;52.220;104.306;2022-12-07T05:46:07;97265.06;;;-4.08;47.54
68141;BME280;54941;52.220;104.306;2022-12-07T05:48:33;97253.88;;;-3.63;46.92
68141;BME280;54941;52.220;104.306;2022-12-07T05:51:00;97255.19;;;-4.11;44.80
68141;BME280;54941;52.220;104.306;2022-12-07T05:53:26;97264.16;;;-4.07;45.55
68141;BME280;54941;52.220;104.306;2022-12-07T05:55:52;97261.19;;;-4.14;45.36
68141;BME280;54941;52.220;104.306;2022-12-07T05:58:19;97254.66;;;-4.16;46.19
68141;BME280;54941;52.220;104.306;2022-12-07T06:00:47;97261.19;;;-3.73;45.40
68141;BME280;54941;52.220;104.306;2022-12-07T06:03:13;97250.63;;;-4.33;47.08
68141;BME280;54941;52.220;104.306;2022-12-07T06:05:39;97259.31;;;-3.83;45.65
68141;BME280;54941;52.220;104.306;2022-12-07T06:08:06;97257.63;;;-3.83;45.91
68141;BME280;54941;52.220;104.306;2022-12-07T06:10:32;97253.63;;;-3.73;45.33
68141;BME280;54941;52.220;104.306;2022-12-07T06:12:59;97259.44;;;-3.85;46.61
68141;BME280;54941;52.220;104.306;2022-12-07T06:15:25;97254.06;;;-3.66;44.49
68141;BME280;54941;52.220;104.306;2022-12-07T06:17:53;97252.56;;;-3.96;44.11
68141;BME280;54941;52.220;104.306;2022-12-07T06:20:19;97252.72;;;-3.99;44.37
68141;BME280;54941;52.220;104.306;2022-12-07T06:22:46;97250.31;;;-4.00;45.03
68141;BME280;54941;52.220;104.306;2022-12-07T06:25:12;97249.66;;;-3.89;44.66
68141;BME280;54941;52.220;104.306;2022-12-07T06:27:39;97250.25;;;-3.86;43.73
68141;BME280;54941;52.220;104.306;2022-12-07T06:30:07;97249.00;;;-4.20;45.31
68141;BME280;54941;52.220;104.306;2022-12-07T06:32:33;97248.94;;;-4.32;45.45
68141;BME280;54941;52.220;104.306;2022-12-07T06:35:01;97251.88;;;-4.26;44.77
68141;BME280;54941;52.220;104.306;2022-12-07T06:37:29;97246.06;;;-4.69;45.60
68141;BME280;54941;52.220;104.306;2022-12-07T06:39:55;97251.09;;;-4.40;46.25
68141;BME280;54941;52.220;104.306;2022-12-07T06:42:22;97244.44;;;-4.56;46.02
68141;BME280;54941;52.220;104.306;2022-12-07T06:44:48;97240.47;;;-4.46;46.74
68141;BME280;54941;52.220;104.306;2022-12-07T06:47:14;97239.59;;;-4.59;48.10
68141;BME280;54941;52.220;104.306;2022-12-07T06:49:41;97241.66;;;-4.51;47.98
68141;BME280;54941;52.220;104.306;2022-12-07T06:52:09;97242.97;;;-4.31;46.91
68141;BME280;54941;52.220;104.306;2022-12-07T06:54:35;97245.06;;;-4.52;46.13
68141;BME280;54941;52.220;104.306;2022-12-07T06:57:01;97242.47;;;-4.93;46.07
68141;BME280;54941;52.220;104.306;2022-12-07T06:59:28;97240.59;;;-4.75;45.87
68141;BME280;54941;52.220;104.306;2022-12-07T07:01:54;97245.59;;;-5.04;46.84
68141;BME280;54941;52.220;104.306;2022-12-07T07:04:20;97252.78;;;-4.98;47.18
68141;BME280;54941;52.220;104.306;2022-12-07T07:06:47;97246.06;;;-4.69;47.06
68141;BME280;54941;52.220;104.306;2022-12-07T07:09:15;97246.88;;;-4.82;46.51
68141;BME280;54941;52.220;104.306;2022-12-07T07:11:41;97251.53;;;-4.76;47.00
68141;BME280;54941;52.220;104.306;2022-12-07T07:14:08;97245.44;;;-4.44;46.54
68141;BME280;54941;52.220;104.306;2022-12-07T07:16:34;97242.47;;;-4.65;47.43
68141;BME280;54941;52.220;104.306;2022-12-07T07:19:00;97251.00;;;-4.53;47.10
68141;BME280;54941;52.220;104.306;2022-12-07T07:21:27;97252.97;;;-4.72;47.75
68141;BME280;54941;52.220;104.306;2022-12-07T07:23:53;97253.44;;;-4.66;47.32
68141;BME280;54941;52.220;104.306;2022-12-07T07:26:21;97253.34;;;-4.64;47.64
68141;BME280;54941;52.220;104.306;2022-12-07T07:28:47;97253.25;;;-4.49;47.26
68141;BME280;54941;52.220;104.306;2022-12-07T07:31:13;97255.94;;;-4.52;46.47
68141;BME280;54941;52.220;104.306;2022-12-07T07:33:40;97257.09;;;-4.85;46.97
68141;BME280;54941;52.220;104.306;2022-12-07T07:36:07;97262.13;;;-4.71;47.43
68141;BME280;54941;52.220;104.306;2022-12-07T07:38:33;97258.84;;;-5.02;47.35
68141;BME280;54941;52.220;104.306;2022-12-07T07:40:59;97258.63;;;-4.83;48.64
68141;BME280;54941;52.220;104.306;2022-12-07T07:43:27;97262.94;;;-4.99;48.86
68141;BME280;54941;52.220;104.306;2022-12-07T07:45:54;97261.00;;;-5.10;48.15
68141;BME280;54941;52.220;104.306;2022-12-07T07:48:20;97259.84;;;-5.04;48.00
68141;BME280;54941;52.220;104.306;2022-12-07T07:50:46;97259.63;;;-5.29;48.44
68141;BME280;54941;52.220;104.306;2022-12-07T07:53:13;97254.13;;;-5.36;49.33
68141;BME280;54941;52.220;104.306;2022-12-07T07:55:39;97255.94;;;-5.54;50.09
68141;BME280;54941;52.220;104.306;2022-12-07T07:58:06;97261.72;;;-5.22;49.11
68141;BME280;54941;52.220;104.306;2022-12-07T08:00:33;97258.75;;;-5.28;49.05
68141;BME280;54941;52.220;104.306;2022-12-07T08:03:00;97261.91;;;-5.41;49.81
68141;BME280;54941;52.220;104.306;2022-12-07T08:05:44;97256.94;;;-5.72;49.73
68141;BME280;54941;52.220;104.306;2022-12-07T08:08:16;97257.91;;;-5.59;49.64
68141;BME280;54941;52.220;104.306;2022-12-07T08:10:48;97266.16;;;-5.57;50.04
68141;BME280;54941;52.220;104.306;2022-12-07T08:13:15;97264.56;;;-5.73;51.01
68141;BME280;54941;52.220;104.306;2022-12-07T08:15:44;97262.94;;;-5.74;51.35
68141;BME280;54941;52.220;104.306;2022-12-07T08:18:12;97266.09;;;-5.71;51.15
68141;BME280;54941;52.220;104.306;2022-12-07T08:20:39;97265.22;;;-5.70;51.39
68141;BME280;54941;52.220;104.306;2022-12-07T08:23:06;97267.19;;;-5.45;49.86
68141;BME280;54941;52.220;104.306;2022-12-07T08:25:33;97266.56;;;-5.64;51.73
68141;BME280;54941;52.220;104.306;2022-12-07T08:28:00;97267.34;;;-5.78;51.97
68141;BME280;54941;52.220;104.306;2022-12-07T08:30:27;97264.88;;;-5.79;52.28
68141;BME280;54941;52.220;104.306;2022-12-07T08:32:55;97265.59;;;-6.07;54.47
68141;BME280;54941;52.220;104.306;2022-12-07T08:35:21;97273.84;;;-6.21;54.27
68141;BME280;54941;52.220;104.306;2022-12-07T08:37:48;97277.31;;;-6.23;54.63
68141;BME280;54941;52.220;104.306;2022-12-07T08:40:14;97273.41;;;-6.45;54.82
68141;BME280;54941;52.220;104.306;2022-12-07T08:42:41;97281.94;;;-6.64;55.46
68141;BME280;54941;52.220;104.306;2022-12-07T08:45:10;97286.94;;;-6.64;56.92
68141;BME280;54941;52.220;104.306;2022-12-07T08:47:40;97286.13;;;-6.65;54.74
68141;BME280;54941;52.220;104.306;2022-12-07T08:50:10;97290.13;;;-6.78;55.71
68141;BME280;54941;52.220;104.306;2022-12-07T08:52:37;97290.00;;;-7.09;58.24
68141;BME280;54941;52.220;104.306;2022-12-07T08:55:06;97288.84;;;-7.02;58.11
68141;BME280;54941;52.220;104.306;2022-12-07T08:57:34;97285.09;;;-7.11;58.22
68141;BME280;54941;52.220;104.306;2022-12-07T09:00:02;97297.16;;;-7.19;58.28
68141;BME280;54941;52.220;104.306;2022-12-07T09:02:31;97292.59;;;-7.11;57.55
68141;BME280;54941;52.220;104.306;2022-12-07T09:04:58;97300.69;;;-7.23;57.79
68141;BME280;54941;52.220;104.306;2022-12-07T09:07:26;97297.38;;;-7.58;58.08
68141;BME280;54941;52.220;104.306;2022-12-07T09:09:53;97299.72;;;-7.55;57.50
68141;BME280;54941;52.220;104.306;2022-12-07T09:12:19;97303.03;;;-7.54;57.58
68141;BME280;54941;52.220;104.306;2022-12-07T09:14:46;97294.63;;;-7.53;57.98
68141;BME280;54941;52.220;104.306;2022-12-07T09:17:13;97301.47;;;-7.57;59.42
68141;BME280;54941;52.220;104.306;2022-12-07T09:19:39;97294.91;;;-7.59;58.92
68141;BME280;54941;52.220;104.306;2022-12-07T09:22:06;97297.72;;;-7.65;59.10
68141;BME280;54941;52.220;104.306;2022-12-07T09:24:34;97301.66;;;-7.78;59.22
68141;BME280;54941;52.220;104.306;2022-12-07T09:27:00;97304.44;;;-7.84;60.46
68141;BME280;54941;52.220;104.306;2022-12-07T09:29:26;97303.97;;;-7.93;61.63
68141;BME280;54941;52.220;104.306;2022-12-07T09:31:53;97306.41;;;-8.10;61.93
68141;BME280;54941;52.220;104.306;2022-12-07T09:34:19;97307.19;;;-7.91;59.75
68141;BME280;54941;52.220;104.306;2022-12-07T09:36:46;97301.81;;;-8.19;61.15
68141;BME280;54941;52.220;104.306;2022-12-07T09:39:12;97301.13;;;-8.22;60.73
68141;BME280;54941;52.220;104.306;2022-12-07T09:41:42;97301.28;;;-8.07;61.01
68141;BME280;54941;52.220;104.306;2022-12-07T09:44:12;97311.47;;;-8.11;61.35
68141;BME280;54941;52.220;104.306;2022-12-07T09:46:40;97307.44;;;-8.32;63.31
68141;BME280;54941;52.220;104.306;2022-12-07T09:49:12;97308.63;;;-8.60;63.41
68141;BME280;54941;52.220;104.306;2022-12-07T09:51:40;97314.03;;;-8.69;64.23
68141;BME280;54941;52.220;104.306;2022-12-07T09:54:09;97326.50;;;-8.89;64.91
68141;BME280;54941;52.220;104.306;2022-12-07T09:56:40;97325.94;;;-8.96;64.37
68141;BME280;54941;52.220;104.306;2022-12-07T09:59:09;97328.50;;;-8.97;64.64
68141;BME280;54941;52.220;104.306;2022-12-07T10:01:40;97333.50;;;-9.17;65.41
68141;BME280;54941;52.220;104.306;2022-12-07T10:04:11;97339.66;;;-9.26;65.41
68141;BME280;54941;52.220;104.306;2022-12-07T10:06:42;97334.22;;;-9.15;65.09
68141;BME280;54941;52.220;104.306;2022-12-07T10:09:10;97331.50;;;-9.09;64.73
68141;BME280;54941;52.220;104.306;2022-12-07T10:12:00;97334.59;;;-9.24;65.35
68141;BME280;54941;52.220;104.306;2022-12-07T10:14:28;97328.72;;;-9.23;64.90
68141;BME280;54941;52.220;104.306;2022-12-07T10:16:55;97337.75;;;-8.99;64.44
68141;BME280;54941;52.220;104.306;2022-12-07T10:19:24;97330.13;;;-8.96;65.44
68141;BME280;54941;52.220;104.306;2022-12-07T10:22:07;97330.25;;;-8.79;64.18
68141;BME280;54941;52.220;104.306;2022-12-07T10:24:35;97326.16;;;-8.80;65.35
68141;BME280;54941;52.220;104.306;2022-12-07T10:27:03;97322.69;;;-8.57;64.00
68141;BME280;54941;52.220;104.306;2022-12-07T10:29:31;97324.84;;;-8.50;63.52
68141;BME280;54941;52.220;104.306;2022-12-07T10:32:00;97326.41;;;-8.47;63.85
68141;BME280;54941;52.220;104.306;2022-12-07T10:34:28;97333.19;;;-8.69;65.32
68141;BME280;54941;52.220;104.306;2022-12-07T10:37:14;97347.03;;;-9.03;66.87
68141;BME280;54941;52.220;104.306;2022-12-07T10:39:42;97339.03;;;-9.11;66.69
68141;BME280;54941;52.220;104.306;2022-12-07T10:42:16;97341.22;;;-8.83;66.39
68141;BME280;54941;52.220;104.306;2022-12-07T10:44:43;97352.16;;;-8.85;66.06
68141;BME280;54941;52.220;104.306;2022-12-07T10:47:23;97339.44;;;-8.79;64.86
68141;BME280;54941;52.220;104.306;2022-12-07T10:50:13;97344.63;;;-8.84;64.42
68141;BME280;54941;52.220;104.306;2022-12-07T10:53:00;97341.81;;;-8.76;63.22
68141;BME280;54941;52.220;104.306;2022-12-07T10:55:40;97326.38;;;-8.86;64.86
68141;BME280;54941;52.220;104.306;2022-12-07T10:58:23;97335.72;;;-8.71;63.76
68141;BME280;54941;52.220;104.306;2022-12-07T11:01:00;97338.38;;;-8.74;65.39
68141;BME280;54941;52.220;104.306;2022-12-07T11:03:38;97348.00;;;-8.65;64.10
68141;BME280;54941;52.220;104.306;2022-12-07T11:06:17;97345.66;;;-8.90;64.87
68141;BME280;54941;52.220;104.306;2022-12-07T11:08:56;97343.69;;;-8.81;64.70
68141;BME280;54941;52.220;104.306;2022-12-07T11:11:30;97344.63;;;-8.84;64.64
68141;BME280;54941;52.220;104.306;2022-12-07T11:14:05;97359.22;;;-8.75;64.07
68141;BME280;54941;52.220;104.306;2022-12-07T11:16:47;97349.16;;;-8.73;63.96
68141;BME280;54941;52.220;104.306;2022-12-07T11:22:18;97353.22;;;-8.71;65.52
68141;BME280;54941;52.220;104.306;2022-12-07T11:24:52;97354.94;;;-8.53;65.34
68141;BME280;54941;52.220;104.306;2022-12-07T11:27:26;97347.84;;;-8.82;66.00
68141;BME280;54941;52.220;104.306;2022-12-07T11:30:24;97347.31;;;-8.68;65.17
68141;BME280;54941;52.220;104.306;2022-12-07T11:33:06;97347.09;;;-8.64;65.91
68141;BME280;54941;52.220;104.306;2022-12-07T11:35:44;97352.41;;;-8.71;66.67
68141;BME280;54941;52.220;104.306;2022-12-07T11:38:15;97341.69;;;-8.73;65.27
68141;BME280;54941;52.220;104.306;2022-12-07T11:40:45;97348.34;;;-8.74;65.43
68141;BME280;54941;52.220;104.306;2022-12-07T11:43:20;97348.78;;;-8.84;67.03
68141;BME280;54941;52.220;104.306;2022-12-07T11:45:54;97352.63;;;-8.76;65.99
68141;BME280;54941;52.220;104.306;2022-12-07T11:48:30;97349.66;;;-8.85;67.11
68141;BME280;54941;52.220;104.306;2022-12-07T11:50:59;97350.47;;;-8.85;66.77
68141;BME280;54941;52.220;104.306;2022-12-07T11:53:31;97350.00;;;-8.73;66.57
68141;BME280;54941;52.220;104.306;2022-12-07T11:56:03;97357.78;;;-8.80;66.49
68141;BME280;54941;52.220;104.306;2022-12-07T11:58:42;97357.41;;;-8.71;66.30
68141;BME280;54941;52.220;104.306;2022-12-07T12:01:37;97353.41;;;-8.75;65.83
68141;BME280;54941;52.220;104.306;2022-12-07T12:04:21;97360.03;;;-8.95;65.55
68141;BME280;54941;52.220;104.306;2022-12-07T12:06:49;97347.28;;;-9.09;65.67
68141;BME280;54941;52.220;104.306;2022-12-07T12:09:18;97357.63;;;-8.98;66.16
68141;BME280;54941;52.220;104.306;2022-12-07T12:12:01;97356.34;;;-8.86;65.17
68141;BME280;54941;52.220;104.306;2022-12-07T12:14:48;97356.84;;;-8.58;64.13
68141;BME280;54941;52.220;104.306;2022-12-07T12:20:30;97358.47;;;-8.77;63.21
68141;BME280;54941;52.220;104.306;2022-12-07T12:23:05;97358.72;;;-8.83;65.69
68141;BME280;54941;52.220;104.306;2022-12-07T12:25:37;97350.66;;;-8.90;65.93
68141;BME280;54941;52.220;104.306;2022-12-07T12:28:06;97362.88;;;-9.04;67.20
68141;BME280;54941;52.220;104.306;2022-12-07T12:30:44;97361.91;;;-9.00;67.44
68141;BME280;54941;52.220;104.306;2022-12-07T12:33:16;97365.53;;;-9.28;68.10
68141;BME280;54941;52.220;104.306;2022-12-07T12:36:17;97362.78;;;-9.43;67.55
68141;BME280;54941;52.220;104.306;2022-12-07T12:38:51;97376.75;;;-9.39;67.38
68141;BME280;54941;52.220;104.306;2022-12-07T12:41:55;97371.00;;;-9.41;66.80
68141;BME280;54941;52.220;104.306;2022-12-07T12:44:40;97380.00;;;-9.58;67.03
68141;BME280;54941;52.220;104.306;2022-12-07T12:50:23;97378.03;;;-9.72;66.23
68141;BME280;54941;52.220;104.306;2022-12-07T12:52:58;97376.97;;;-9.66;65.99
68141;BME280;54941;52.220;104.306;2022-12-07T13:01:43;97388.78;;;-9.71;66.74
68141;BME280;54941;52.220;104.306;2022-12-07T13:07:54;97391.63;;;-9.80;67.05
68141;BME280;54941;52.220;104.306;2022-12-07T13:13:34;97391.56;;;-9.79;65.97
68141;BME280;54941;52.220;104.306;2022-12-07T13:16:40;97395.75;;;-9.79;66.94